Time;durP1;ratioP1;P1;durP2;ratioP2;P2;SDS_P1;SDS_P2;PMS_P1;PMS_P2;Temp;Humidity;BMP_temperature;BMP_pressure;BME280_temperature;BME280_humidity;BME280_pressure;Samples;Min_cycle;Max_cycle;Signal;HPM_P1;HPM_P2
2024/02/23 00:00:48;;;;;;;1.23;0.90;;;;;;;8.79;100.00;95693.81;6106176;19;20026;-71
2024/02/23 00:02:49;;;;;;;1.30;1.20;;;;;;;8.74;100.00;95692.34;6106762;19;20018;-71
2024/02/23 00:04:49;;;;;;;1.15;1.05;;;;;;;8.67;100.00;95698.81;6108319;19;19999;-71
2024/02/23 00:06:49;;;;;;;5.38;1.20;;;;;;;8.69;100.00;95695.66;6107431;19;20002;-71
2024/02/23 00:08:50;;;;;;;1.10;1.00;;;;;;;8.67;100.00;95707.09;6107100;19;20001;-71
2024/02/23 00:10:50;;;;;;;1.30;0.90;;;;;;;8.69;100.00;95734.25;6106527;19;19998;-71
2024/02/23 00:12:50;;;;;;;0.90;0.80;;;;;;;8.61;100.00;95738.38;6107021;19;20005;-71
2024/02/23 00:14:51;;;;;;;1.17;0.70;;;;;;;8.68;100.00;95729.91;6096620;19;20687;-71
2024/02/23 00:16:51;;;;;;;0.80;0.80;;;;;;;8.64;100.00;95730.00;6106945;19;20082;-71
2024/02/23 00:18:52;;;;;;;10.98;1.70;;;;;;;8.59;100.00;95722.25;6105771;19;20391;-71
2024/02/23 00:20:52;;;;;;;0.63;0.63;;;;;;;8.52;100.00;95751.97;6106775;19;20422;-72
2024/02/23 00:22:53;;;;;;;1.40;0.90;;;;;;;8.44;100.00;95738.38;6103488;19;20006;-71
2024/02/23 00:24:53;;;;;;;1.13;0.90;;;;;;;8.38;100.00;95753.84;6107550;19;20003;-71
2024/02/23 00:26:54;;;;;;;1.10;0.80;;;;;;;8.34;100.00;95764.16;6107054;19;20006;-71
2024/02/23 00:28:54;;;;;;;1.75;0.90;;;;;;;8.33;100.00;95753.56;6105525;19;20006;-72
2024/02/23 00:30:55;;;;;;;0.93;0.77;;;;;;;8.24;100.00;95767.94;6106433;19;20001;-71
2024/02/23 00:32:55;;;;;;;1.25;0.70;;;;;;;8.20;100.00;95771.97;6103596;19;20003;-71
2024/02/23 00:34:57;;;;;;;1.55;0.80;;;;;;;8.18;100.00;95772.38;6106541;19;20017;-71
2024/02/23 00:36:57;;;;;;;1.20;0.77;;;;;;;8.14;100.00;95766.97;6105568;19;20463;-71
2024/02/23 00:38:57;;;;;;;0.98;0.80;;;;;;;8.06;100.00;95795.88;6105922;19;19997;-71
2024/02/23 00:40:58;;;;;;;1.00;0.90;;;;;;;8.00;100.00;95796.78;6106483;19;20009;-71
2024/02/23 00:43:00;;;;;;;0.60;0.60;;;;;;;8.04;100.00;95839.59;6106117;19;20329;-71
2024/02/23 00:45:00;;;;;;;0.98;0.77;;;;;;;7.96;100.00;95826.38;6105021;19;19998;-71
2024/02/23 00:47:01;;;;;;;0.80;0.70;;;;;;;7.88;100.00;95840.28;6106510;19;20036;-71
2024/02/23 00:49:02;;;;;;;1.17;0.88;;;;;;;7.85;100.00;95862.38;6105339;19;20572;-71
2024/02/23 00:51:03;;;;;;;0.60;0.60;;;;;;;7.71;100.00;95857.94;6106548;19;20006;-71
2024/02/23 00:53:04;;;;;;;0.75;0.70;;;;;;;7.58;100.00;95885.28;6105716;19;20009;-71
2024/02/23 00:55:04;;;;;;;0.95;0.70;;;;;;;7.55;100.00;95879.88;6106555;19;20066;-71
2024/02/23 00:57:05;;;;;;;0.80;0.70;;;;;;;7.44;100.00;95882.00;6106033;19;20402;-71
2024/02/23 00:59:05;;;;;;;1.67;0.73;;;;;;;7.32;100.00;95886.94;6103887;19;20459;-71
2024/02/23 01:01:05;;;;;;;1.17;0.80;;;;;;;7.16;100.00;95881.31;6105477;19;20010;-71
2024/02/23 01:03:06;;;;;;;0.63;0.63;;;;;;;7.10;100.00;95877.47;6105872;19;20009;-71
2024/02/23 01:05:09;;;;;;;1.55;0.80;;;;;;;6.95;100.00;95893.44;6105068;19;20010;-71
2024/02/23 01:07:09;;;;;;;0.82;0.75;;;;;;;6.87;100.00;95886.50;6104648;19;20026;-71
2024/02/23 01:09:09;;;;;;;0.70;0.70;;;;;;;6.88;100.00;95896.31;6104318;19;20443;-71
2024/02/23 01:11:10;;;;;;;0.98;0.88;;;;;;;6.94;100.00;95904.84;6105488;19;20015;-71
2024/02/23 01:13:10;;;;;;;1.05;0.70;;;;;;;6.94;100.00;95900.13;6105847;19;19998;-71
2024/02/23 01:15:10;;;;;;;1.40;0.60;;;;;;;6.95;100.00;95920.13;6098877;19;19998;-71
2024/02/23 01:17:11;;;;;;;1.33;0.70;;;;;;;6.97;100.00;95895.78;6097245;19;19999;-71
2024/02/23 01:19:11;;;;;;;1.55;0.80;;;;;;;7.00;100.00;95909.44;6096245;19;20029;-71
2024/02/23 01:21:12;;;;;;;4.15;0.95;;;;;;;6.92;100.00;95921.75;6097045;19;20044;-71
2024/02/23 01:23:12;;;;;;;1.10;0.70;;;;;;;7.02;100.00;95942.78;6095266;19;20007;-71
2024/02/23 01:25:14;;;;;;;2.70;0.70;;;;;;;6.94;100.00;95946.84;6097255;19;20744;-71
2024/02/23 01:27:15;;;;;;;1.38;0.77;;;;;;;7.04;100.00;95947.91;6097826;19;20066;-71
2024/02/23 01:29:16;;;;;;;0.93;0.70;;;;;;;7.01;100.00;95935.75;6095548;19;20597;-71
2024/02/23 01:31:16;;;;;;;0.70;0.70;;;;;;;6.96;100.00;95938.22;6097138;19;20007;-71
2024/02/23 01:33:17;;;;;;;0.65;0.63;;;;;;;6.95;100.00;95939.38;6097665;19;20078;-71
2024/02/23 01:35:17;;;;;;;0.70;0.70;;;;;;;6.91;100.00;95952.41;6108559;19;20030;-71
2024/02/23 01:37:17;;;;;;;0.80;0.80;;;;;;;6.89;100.00;95965.78;6108600;19;20027;-71
2024/02/23 01:39:18;;;;;;;0.90;0.68;;;;;;;6.89;100.00;95954.81;6108710;19;20251;-71
2024/02/23 01:41:18;;;;;;;0.88;0.70;;;;;;;6.87;100.00;95971.72;6107125;19;20018;-71
2024/02/23 01:43:19;;;;;;;1.48;0.70;;;;;;;6.79;100.00;95966.72;6108991;19;20017;-71
2024/02/23 01:45:19;;;;;;;1.02;0.80;;;;;;;6.76;100.00;95984.81;6109169;19;20036;-71
2024/02/23 01:47:19;;;;;;;1.70;0.80;;;;;;;6.73;100.00;95982.91;6108562;19;20002;-71
2024/02/23 01:49:20;;;;;;;4.32;0.93;;;;;;;6.74;100.00;95987.19;6106620;19;19999;-71
2024/02/23 01:51:21;;;;;;;0.70;0.70;;;;;;;6.74;100.00;95987.97;6108035;19;20043;-71
2024/02/23 01:53:22;;;;;;;0.88;0.63;;;;;;;6.78;100.00;95987.13;6108407;19;19999;-71
2024/02/23 01:55:23;;;;;;;0.85;0.63;;;;;;;6.70;100.00;95989.19;6109059;19;20513;-71
2024/02/23 01:57:24;;;;;;;0.77;0.77;;;;;;;6.69;100.00;95988.41;6107332;19;20002;-71
2024/02/23 01:59:25;;;;;;;1.77;0.80;;;;;;;6.61;100.00;95989.69;6107710;19;20179;-72
2024/02/23 02:01:26;;;;;;;1.02;0.70;;;;;;;6.63;100.00;95984.59;6108299;19;20013;-71
2024/02/23 02:03:26;;;;;;;2.35;0.90;;;;;;;6.67;100.00;95992.78;6108631;19;20507;-71
2024/02/23 02:05:27;;;;;;;0.85;0.60;;;;;;;6.59;100.00;96005.06;6107434;19;20006;-71
2024/02/23 02:07:28;;;;;;;0.70;0.70;;;;;;;6.57;100.00;96010.19;6108902;19;20574;-71
2024/02/23 02:09:29;;;;;;;1.45;0.80;;;;;;;6.57;100.00;95999.19;6106936;19;20003;-71
2024/02/23 02:11:29;;;;;;;0.77;0.75;;;;;;;6.56;100.00;96003.13;6107320;19;19999;-71
2024/02/23 02:13:30;;;;;;;0.70;0.70;;;;;;;6.53;100.00;96004.72;6107464;19;19998;-71
2024/02/23 02:15:30;;;;;;;0.82;0.70;;;;;;;6.53;100.00;96004.72;6111952;19;20017;-71
2024/02/23 02:17:31;;;;;;;0.98;0.82;;;;;;;6.58;100.00;96039.22;6115651;19;20006;-71
2024/02/23 02:19:31;;;;;;;0.75;0.73;;;;;;;6.54;100.00;96036.53;6114732;19;20009;-71
2024/02/23 02:21:33;;;;;;;1.63;0.90;;;;;;;6.44;100.00;96031.91;6115481;19;19999;-71
2024/02/23 02:23:33;;;;;;;1.13;0.80;;;;;;;6.43;100.00;96030.34;6114898;19;20026;-71
2024/02/23 02:25:33;;;;;;;0.75;0.70;;;;;;;6.38;100.00;96045.34;6115940;19;20003;-71
2024/02/23 02:27:34;;;;;;;2.00;1.23;;;;;;;6.33;100.00;96040.28;6115160;19;20351;-71
2024/02/23 02:29:35;;;;;;;1.98;0.90;;;;;;;6.29;100.00;96077.19;6114983;19;20465;-71
2024/02/23 02:31:37;;;;;;;2.10;1.10;;;;;;;6.27;100.00;96061.13;6114790;19;20006;-71
2024/02/23 02:33:37;;;;;;;1.35;0.93;;;;;;;6.29;100.00;96060.72;6114277;19;20006;-71
2024/02/23 02:35:37;;;;;;;3.53;0.80;;;;;;;6.26;100.00;96069.78;6115738;19;20431;-71
2024/02/23 02:37:39;;;;;;;1.77;0.80;;;;;;;6.24;100.00;96078.44;6115305;19;20094;-71
2024/02/23 02:39:39;;;;;;;2.47;0.90;;;;;;;6.15;100.00;96083.63;6114198;19;20026;-71
2024/02/23 02:41:39;;;;;;;1.90;0.70;;;;;;;6.11;100.00;96075.41;6115313;19;20026;-71
2024/02/23 02:43:40;;;;;;;0.77;0.68;;;;;;;6.05;100.00;96090.00;6114605;19;20094;-71
2024/02/23 02:45:40;;;;;;;2.63;1.55;;;;;;;6.01;100.00;96095.50;6108236;19;20349;-71
2024/02/23 02:47:41;;;;;;;0.70;0.70;;;;;;;5.97;100.00;96083.78;6109361;19;19999;-71
2024/02/23 02:49:41;;;;;;;1.48;0.90;;;;;;;5.87;100.00;96079.13;6108890;19;20027;-72
2024/02/23 02:51:41;;;;;;;1.35;0.80;;;;;;;5.88;100.00;96080.69;6107344;19;20451;-71
2024/02/23 02:53:42;;;;;;;0.70;0.70;;;;;;;5.82;100.00;96083.09;6107851;19;20382;-71
2024/02/23 02:55:43;;;;;;;1.52;0.52;;;;;;;5.73;100.00;96074.53;6108047;19;19998;-71
2024/02/23 02:57:44;;;;;;;1.40;0.85;;;;;;;5.69;100.00;96078.50;6109074;19;20491;-71
2024/02/23 02:59:45;;;;;;;1.52;0.70;;;;;;;5.74;100.00;96102.75;6106273;19;20050;-71
2024/02/23 03:01:46;;;;;;;2.45;0.93;;;;;;;5.75;100.00;96099.59;6109320;19;20447;-71
2024/02/23 03:03:47;;;;;;;0.75;0.70;;;;;;;5.77;100.00;96101.94;6108869;19;20078;-71
2024/02/23 03:05:47;;;;;;;0.95;0.77;;;;;;;5.80;100.00;96112.91;6109211;19;20010;-71
2024/02/23 03:07:48;;;;;;;0.70;0.70;;;;;;;5.71;100.00;96100.81;6107426;19;20101;-71
2024/02/23 03:09:50;;;;;;;1.27;0.73;;;;;;;5.69;100.00;96109.44;6107431;19;20079;-71
2024/02/23 03:11:51;;;;;;;0.73;0.68;;;;;;;5.72;100.00;96121.59;6107423;19;20478;-71
2024/02/23 03:13:52;;;;;;;0.65;0.60;;;;;;;5.74;100.00;96119.22;6108726;19;20007;-71
2024/02/23 03:15:52;;;;;;;0.75;0.70;;;;;;;5.77;100.00;96121.16;6108502;19;19994;-71
2024/02/23 03:17:54;;;;;;;2.15;0.90;;;;;;;5.67;100.00;96122.00;6106956;19;20429;-71
2024/02/23 03:19:54;;;;;;;2.42;0.80;;;;;;;5.69;100.00;96117.69;6105795;19;20038;-71
2024/02/23 03:21:55;;;;;;;0.60;0.60;;;;;;;5.68;100.00;96101.63;6107083;19;20142;-71
2024/02/23 03:23:55;;;;;;;1.77;0.70;;;;;;;5.66;100.00;96120.47;6107703;19;20361;-71
2024/02/23 03:25:55;;;;;;;1.05;0.70;;;;;;;5.64;100.00;96129.09;6107934;19;20499;-71
2024/02/23 03:27:56;;;;;;;1.05;0.65;;;;;;;5.69;100.00;96130.63;6108163;19;20013;-71
2024/02/23 03:29:56;;;;;;;1.80;0.73;;;;;;;5.58;100.00;96136.97;6106845;19;20508;-71
2024/02/23 03:31:56;;;;;;;0.75;0.75;;;;;;;5.43;100.00;96138.22;6106501;19;20420;-71
2024/02/23 03:33:57;;;;;;;0.80;0.55;;;;;;;5.34;100.00;96146.13;6108752;19;20451;-71
2024/02/23 03:35:58;;;;;;;2.25;0.68;;;;;;;5.17;100.00;96150.50;6108009;19;20003;-71
2024/02/23 03:37:59;;;;;;;0.70;0.60;;;;;;;5.09;100.00;96162.69;6109582;19;20416;-71
2024/02/23 03:40:00;;;;;;;0.63;0.63;;;;;;;5.08;100.00;96172.09;6105478;19;19998;-71
2024/02/23 03:42:01;;;;;;;1.07;0.70;;;;;;;4.98;100.00;96181.91;6107760;19;20007;-71
2024/02/23 03:44:01;;;;;;;0.60;0.50;;;;;;;4.95;100.00;96182.69;6107661;19;20013;-71
2024/02/23 03:46:01;;;;;;;0.60;0.60;;;;;;;4.87;100.00;96177.63;6108590;19;20024;-71
2024/02/23 03:48:03;;;;;;;0.60;0.60;;;;;;;4.91;100.00;96183.91;6107819;19;19997;-72
2024/02/23 03:50:04;;;;;;;0.65;0.52;;;;;;;4.83;100.00;96180.41;6106399;19;20362;-71
2024/02/23 03:52:05;;;;;;;0.57;0.57;;;;;;;4.79;100.00;96193.31;6106734;19;20003;-71
2024/02/23 03:54:06;;;;;;;1.77;0.65;;;;;;;4.74;100.00;96193.72;6106697;19;20408;-71
2024/02/23 03:56:07;;;;;;;0.70;0.60;;;;;;;4.67;100.00;96185.53;6107110;19;20003;-71
2024/02/23 03:58:07;;;;;;;1.27;0.65;;;;;;;4.67;100.00;96194.53;6106334;19;20368;-71
2024/02/23 04:00:08;;;;;;;0.90;0.90;;;;;;;4.70;100.00;96182.78;6105587;19;19999;-71
2024/02/23 04:02:09;;;;;;;0.60;0.50;;;;;;;4.68;100.00;96201.56;6106477;19;19994;-71
2024/02/23 04:04:09;;;;;;;0.80;0.80;;;;;;;4.66;100.00;96194.94;6107299;19;20067;-71
2024/02/23 04:06:09;;;;;;;0.65;0.65;;;;;;;4.64;100.00;96206.28;6108821;19;19990;-71
2024/02/23 04:08:10;;;;;;;2.25;0.80;;;;;;;4.65;100.00;96216.06;6107586;19;20034;-71
2024/02/23 04:10:10;;;;;;;0.80;0.80;;;;;;;4.62;100.00;96213.31;6106734;19;20002;-71
2024/02/23 04:12:10;;;;;;;0.77;0.60;;;;;;;4.60;100.00;96232.88;6107791;19;19995;-71
2024/02/23 04:14:11;;;;;;;1.85;0.77;;;;;;;4.60;100.00;96218.41;6107294;19;19998;-71
2024/02/23 04:16:11;;;;;;;0.80;0.60;;;;;;;4.61;100.00;96222.69;6107282;19;20525;-71
2024/02/23 04:18:11;;;;;;;0.65;0.65;;;;;;;4.59;100.00;96233.28;6107867;19;19995;-71
2024/02/23 04:20:13;;;;;;;0.60;0.60;;;;;;;4.57;100.00;96239.16;6107100;19;19994;-71
2024/02/23 04:22:13;;;;;;;0.68;0.68;;;;;;;4.54;100.00;96242.66;6106592;19;20002;-71
2024/02/23 04:24:14;;;;;;;0.52;0.52;;;;;;;4.53;100.00;96238.34;6106386;19;19995;-71
2024/02/23 04:26:14;;;;;;;0.70;0.70;;;;;;;4.48;100.00;96255.19;6107510;19;20597;-71
2024/02/23 04:28:14;;;;;;;2.42;0.80;;;;;;;4.48;100.00;96257.94;6107658;19;20050;-71
2024/02/23 04:30:15;;;;;;;0.90;0.70;;;;;;;4.42;100.00;96257.53;6105356;19;20114;-71
2024/02/23 04:32:15;;;;;;;0.88;0.70;;;;;;;4.40;100.00;96248.94;6108034;19;19994;-71
2024/02/23 04:34:16;;;;;;;0.93;0.82;;;;;;;4.44;100.00;96257.94;6106831;19;20011;-71
2024/02/23 04:36:20;;;;;;;2.45;0.77;;;;;;;4.43;100.00;96250.09;6107263;19;20731;-71
2024/02/23 04:38:20;;;;;;;0.55;0.55;;;;;;;4.47;100.00;96257.16;6106856;19;20003;-71
2024/02/23 04:40:21;;;;;;;2.60;0.88;;;;;;;4.50;100.00;96250.09;6106164;19;20239;-71
2024/02/23 04:42:21;;;;;;;0.70;0.70;;;;;;;4.48;100.00;96255.97;6107052;19;20027;-71
2024/02/23 04:44:22;;;;;;;1.42;0.70;;;;;;;4.40;100.00;96262.63;6106581;19;20013;-71
2024/02/23 04:46:23;;;;;;;1.48;0.85;;;;;;;4.39;100.00;96263.81;6106789;19;21230;-71
2024/02/23 04:48:23;;;;;;;1.08;0.70;;;;;;;4.39;100.00;96249.34;6107441;19;20022;-71
2024/02/23 04:50:23;;;;;;;0.73;0.73;;;;;;;4.40;100.00;96273.59;6104779;19;20003;-71
2024/02/23 04:52:23;;;;;;;1.25;0.90;;;;;;;4.42;100.00;96270.44;6105995;19;20010;-71
2024/02/23 04:54:24;;;;;;;0.70;0.70;;;;;;;4.32;100.00;96265.75;6106490;19;20007;-71
2024/02/23 04:56:24;;;;;;;0.85;0.60;;;;;;;4.33;100.00;96279.06;6106631;19;20574;-71
2024/02/23 04:58:25;;;;;;;1.45;0.80;;;;;;;4.31;100.00;96283.38;6106177;19;20422;-71
2024/02/23 05:00:32;;;;;;;2.40;0.75;;;;;;;4.25;100.00;96269.28;6105143;19;20003;-71
2024/02/23 05:02:35;;;;;;;2.40;0.70;;;;;;;4.23;100.00;96279.84;6106978;19;20397;-71
2024/02/23 05:04:35;;;;;;;0.60;0.60;;;;;;;4.21;100.00;96276.69;6106923;19;20010;-71
2024/02/23 05:06:35;;;;;;;0.73;0.70;;;;;;;4.22;100.00;96302.91;6106437;19;20328;-71
2024/02/23 05:08:36;;;;;;;2.35;0.70;;;;;;;4.23;100.00;96309.94;6105269;19;19998;-71
2024/02/23 05:10:36;;;;;;;0.90;0.80;;;;;;;4.12;100.00;96318.13;6105824;19;20016;-71
2024/02/23 05:12:36;;;;;;;1.17;0.73;;;;;;;4.12;100.00;96314.59;6106780;19;20331;-71
2024/02/23 05:14:37;;;;;;;0.60;0.60;;;;;;;4.12;100.00;96315.38;6096872;19;20010;-71
2024/02/23 05:16:37;;;;;;;1.65;0.75;;;;;;;4.15;100.00;96328.31;6107849;19;20022;-71
2024/02/23 05:18:37;;;;;;;0.60;0.60;;;;;;;4.08;100.00;96322.81;6105750;19;20030;-71
2024/02/23 05:20:38;;;;;;;0.73;0.60;;;;;;;4.10;100.00;96327.91;6105178;19;20011;-71
2024/02/23 05:22:39;;;;;;;0.60;0.60;;;;;;;4.10;100.00;96327.91;6106493;19;20006;-71
2024/02/23 05:24:39;;;;;;;0.70;0.70;;;;;;;4.06;100.00;96343.53;6107048;19;20002;-71
2024/02/23 05:26:40;;;;;;;0.80;0.75;;;;;;;4.03;100.00;96325.13;6106591;19;19998;-71
2024/02/23 05:28:40;;;;;;;3.33;1.25;;;;;;;4.02;100.00;96327.09;6107144;19;20040;-71
2024/02/23 05:30:40;;;;;;;4.82;0.70;;;;;;;4.02;100.00;96331.78;6104868;19;20007;-71
2024/02/23 05:32:41;;;;;;;3.83;0.68;;;;;;;4.10;100.00;96325.16;6105019;19;19999;-71
2024/02/23 05:34:41;;;;;;;1.92;0.80;;;;;;;4.00;100.00;96339.59;6103524;19;20155;-71
2024/02/23 05:36:43;;;;;;;2.22;0.70;;;;;;;3.98;100.00;96344.69;6106791;19;20024;-71
2024/02/23 05:38:45;;;;;;;2.17;0.70;;;;;;;3.97;100.00;96343.09;6106159;19;20066;-71
2024/02/23 05:40:47;;;;;;;1.58;0.60;;;;;;;3.94;100.00;96341.91;6103836;19;20022;-71
2024/02/23 05:42:47;;;;;;;1.05;0.60;;;;;;;3.90;100.00;96343.88;6104961;19;20384;-71
2024/02/23 05:44:48;;;;;;;2.25;1.00;;;;;;;3.96;100.00;96356.00;6106770;19;20023;-71
2024/02/23 05:46:48;;;;;;;0.63;0.63;;;;;;;3.92;100.00;96356.00;6105299;19;20011;-71
2024/02/23 05:48:49;;;;;;;1.05;0.80;;;;;;;3.93;100.00;96363.03;6105926;19;20006;-71
2024/02/23 05:50:49;;;;;;;0.55;0.55;;;;;;;3.92;100.00;96355.22;6102827;19;20711;-71
2024/02/23 05:52:50;;;;;;;0.85;0.70;;;;;;;3.91;100.00;96361.84;6105219;19;20354;-71
2024/02/23 05:54:51;;;;;;;1.80;0.75;;;;;;;3.96;100.00;96366.94;6104888;19;20840;-71
2024/02/23 05:56:52;;;;;;;2.27;0.70;;;;;;;3.92;100.00;96372.41;6106206;19;20098;-71
2024/02/23 05:58:52;;;;;;;1.02;0.60;;;;;;;3.87;100.00;96372.75;6105126;19;20085;-71
2024/02/23 06:00:53;;;;;;;1.67;0.80;;;;;;;3.94;100.00;96366.53;6102267;19;19999;-71
2024/02/23 06:02:53;;;;;;;2.30;0.85;;;;;;;3.95;100.00;96363.41;6104863;19;20009;-71
2024/02/23 06:04:53;;;;;;;0.80;0.70;;;;;;;3.98;100.00;96363.84;6103983;19;20018;-71
2024/02/23 06:06:54;;;;;;;1.33;0.60;;;;;;;4.03;100.00;96368.91;6105589;19;20007;-71
2024/02/23 06:08:54;;;;;;;1.58;0.68;;;;;;;3.95;100.00;96355.22;6105118;19;20027;-71
2024/02/23 06:10:54;;;;;;;1.20;0.70;;;;;;;3.98;100.00;96350.94;6104050;19;20021;-71
2024/02/23 06:12:55;;;;;;;2.17;0.70;;;;;;;3.92;100.00;96364.19;6104050;19;20454;-71
2024/02/23 06:14:56;;;;;;;0.70;0.70;;;;;;;3.95;100.00;96355.22;6100694;19;20374;-71
2024/02/23 06:16:57;;;;;;;0.82;0.70;;;;;;;3.87;100.00;96364.56;6097119;19;20013;-71
2024/02/23 06:18:58;;;;;;;0.82;0.70;;;;;;;3.79;100.00;96362.97;6094958;19;20541;-71
2024/02/23 06:20:58;;;;;;;2.45;0.73;;;;;;;3.82;100.00;96373.16;6097416;19;20466;-71
2024/02/23 06:22:58;;;;;;;1.77;0.63;;;;;;;3.77;100.00;96370.78;6101903;19;19999;-71
2024/02/23 06:24:59;;;;;;;0.70;0.70;;;;;;;3.79;100.00;96378.59;6101714;19;20012;-71
2024/02/23 06:26:59;;;;;;;1.48;0.70;;;;;;;3.83;100.00;96373.94;6102634;19;19995;-71
2024/02/23 06:29:00;;;;;;;1.55;0.70;;;;;;;3.80;100.00;96385.63;6101595;19;20341;-71
2024/02/23 06:31:00;;;;;;;2.15;0.95;;;;;;;3.74;100.00;96378.97;6102226;19;20066;-71
2024/02/23 06:33:00;;;;;;;1.42;0.80;;;;;;;3.74;100.00;96395.41;6100357;19;19998;-71
2024/02/23 06:35:02;;;;;;;2.05;0.80;;;;;;;3.71;100.00;96398.88;6099165;19;20025;-71
2024/02/23 06:37:03;;;;;;;3.28;0.70;;;;;;;3.71;100.00;96398.88;6099258;19;19998;-71
2024/02/23 06:39:04;;;;;;;0.70;0.70;;;;;;;3.74;100.00;96411.81;6097017;19;20022;-71
2024/02/23 06:41:05;;;;;;;2.42;0.80;;;;;;;3.67;100.00;96409.81;6097847;19;20002;-71
2024/02/23 06:43:06;;;;;;;1.95;0.80;;;;;;;3.70;100.00;96395.34;6098716;19;20017;-71
2024/02/23 06:45:07;;;;;;;1.00;0.60;;;;;;;3.76;100.00;96406.72;6098490;19;20006;-71
2024/02/23 06:47:08;;;;;;;2.50;0.80;;;;;;;3.68;100.00;96419.56;6099947;19;20005;-71
2024/02/23 06:49:08;;;;;;;0.95;0.82;;;;;;;3.68;100.00;96430.53;6099376;19;20671;-71
2024/02/23 06:51:09;;;;;;;4.03;0.80;;;;;;;3.66;100.00;96430.13;6099486;19;20003;-71
2024/02/23 06:53:09;;;;;;;0.80;0.80;;;;;;;3.63;100.00;96441.81;6100917;19;20023;-71
2024/02/23 06:55:10;;;;;;;2.78;0.70;;;;;;;3.59;100.00;96441.81;6101374;19;20030;-71
2024/02/23 06:57:10;;;;;;;4.22;0.80;;;;;;;3.76;100.00;96455.97;6101076;19;20006;-71
2024/02/23 06:59:10;;;;;;;1.40;0.85;;;;;;;3.71;100.00;96457.09;6100114;19;20065;-71
2024/02/23 07:01:12;;;;;;;1.08;0.90;;;;;;;3.69;100.00;96462.16;6100800;19;20007;-71
2024/02/23 07:03:14;;;;;;;1.83;1.10;;;;;;;3.64;100.00;96466.06;6100615;19;20467;-71
2024/02/23 07:05:14;;;;;;;1.95;0.82;;;;;;;3.63;100.00;96469.16;6101208;19;20066;-71
2024/02/23 07:07:14;;;;;;;0.70;0.70;;;;;;;3.59;100.00;96477.34;6101666;19;20745;-71
2024/02/23 07:09:15;;;;;;;0.80;0.70;;;;;;;3.60;100.00;96475.41;6099724;19;20021;-71
2024/02/23 07:11:15;;;;;;;1.02;0.70;;;;;;;3.57;100.00;96481.63;6100910;19;19998;-71
2024/02/23 07:13:17;;;;;;;3.17;0.90;;;;;;;3.56;100.00;96486.31;6100901;19;20328;-71
2024/02/23 07:15:17;;;;;;;1.10;0.80;;;;;;;3.62;100.00;96503.13;6105533;19;19999;-71
2024/02/23 07:17:18;;;;;;;1.85;0.70;;;;;;;3.62;100.00;96500.41;6107728;19;20003;-71
2024/02/23 07:19:19;;;;;;;4.45;0.90;;;;;;;3.73;100.00;96495.03;6107900;19;20007;-71
2024/02/23 07:21:23;;;;;;;2.85;1.58;;;;;;;3.74;100.00;96496.59;6106987;19;20331;-71
2024/02/23 07:23:23;;;;;;;3.50;0.85;;;;;;;3.71;100.00;96500.06;6103900;19;20010;-71
2024/02/23 07:25:24;;;;;;;2.88;0.90;;;;;;;3.75;100.00;96492.69;6107639;19;20010;-70
2024/02/23 07:27:24;;;;;;;3.70;0.90;;;;;;;3.83;100.00;96503.28;6108888;19;20059;-70
2024/02/23 07:29:24;;;;;;;1.13;0.80;;;;;;;3.81;100.00;96497.44;6105410;19;19999;-71
2024/02/23 07:31:25;;;;;;;1.65;0.90;;;;;;;3.86;100.00;96493.53;6103341;19;20034;-71
2024/02/23 07:33:25;;;;;;;4.63;0.90;;;;;;;3.90;100.00;96489.66;6107927;19;20025;-71
2024/02/23 07:35:25;;;;;;;1.50;0.88;;;;;;;3.88;100.00;96491.97;6108744;19;19994;-71
2024/02/23 07:37:27;;;;;;;1.55;1.15;;;;;;;3.94;100.00;96489.66;6107845;19;19998;-71
2024/02/23 07:39:27;;;;;;;0.95;0.70;;;;;;;3.93;100.00;96485.38;6107169;19;19998;-71
2024/02/23 07:41:28;;;;;;;1.67;1.35;;;;;;;3.95;100.00;96491.22;6107945;19;20021;-71
2024/02/23 07:43:29;;;;;;;1.23;0.80;;;;;;;3.93;100.00;96507.25;6107524;19;20010;-71
2024/02/23 07:45:29;;;;;;;0.70;0.70;;;;;;;3.98;100.00;96503.38;6107785;19;20032;-71
2024/02/23 07:47:30;;;;;;;2.38;0.80;;;;;;;4.06;100.00;96485.84;6107143;19;20011;-71
2024/02/23 07:49:31;;;;;;;3.30;0.85;;;;;;;4.05;100.00;96486.97;6106786;19;20336;-71
2024/02/23 07:51:31;;;;;;;2.88;1.10;;;;;;;4.06;100.00;96483.09;6106020;19;19998;-71
2024/02/23 07:53:32;;;;;;;2.72;1.40;;;;;;;4.03;100.00;96481.88;6107405;19;20034;-71
2024/02/23 07:55:32;;;;;;;1.90;0.95;;;;;;;3.98;100.00;96474.06;6108340;19;20002;-71
2024/02/23 07:57:34;;;;;;;1.63;0.90;;;;;;;3.94;100.00;96484.19;6108204;19;19995;-71
2024/02/23 07:59:35;;;;;;;1.77;1.10;;;;;;;3.86;100.00;96477.91;6106707;19;19998;-71
2024/02/23 08:01:35;;;;;;;2.10;1.15;;;;;;;3.89;100.00;96481.84;6106492;19;20003;-71
2024/02/23 08:03:35;;;;;;;1.85;1.08;;;;;;;3.82;100.00;96477.09;6107669;19;20447;-71
2024/02/23 08:05:36;;;;;;;1.73;1.30;;;;;;;3.73;100.00;96462.22;6107266;19;20514;-71
2024/02/23 08:07:36;;;;;;;1.17;0.90;;;;;;;3.77;100.00;96477.47;6108118;19;20283;-71
2024/02/23 08:09:37;;;;;;;2.40;1.20;;;;;;;3.82;100.00;96468.91;6106847;19;20007;-70
2024/02/23 08:11:37;;;;;;;2.10;1.38;;;;;;;3.85;100.00;96470.06;6105022;19;20062;-71
2024/02/23 08:13:37;;;;;;;3.25;1.00;;;;;;;3.92;100.00;96464.66;6105899;19;20014;-71
2024/02/23 08:15:38;;;;;;;3.95;1.10;;;;;;;3.87;100.00;96467.72;6100827;19;20025;-71
2024/02/23 08:17:38;;;;;;;1.48;0.80;;;;;;;3.84;100.00;96466.56;6106469;19;20010;-71
2024/02/23 08:19:38;;;;;;;0.85;0.85;;;;;;;3.88;100.00;96467.34;6103063;19;20011;-71
2024/02/23 08:21:39;;;;;;;0.77;0.73;;;;;;;3.87;100.00;96471.25;6107038;19;20006;-71
2024/02/23 08:23:39;;;;;;;1.83;1.00;;;;;;;3.88;100.00;96472.81;6106987;19;20023;-71
2024/02/23 08:25:40;;;;;;;2.10;1.10;;;;;;;3.99;100.00;96483.06;6107666;19;20025;-71
2024/02/23 08:27:41;;;;;;;2.35;0.98;;;;;;;4.08;100.00;96483.50;6107078;19;20003;-71
2024/02/23 08:29:41;;;;;;;0.80;0.80;;;;;;;4.18;100.00;96480.00;6105844;19;20463;-71
2024/02/23 08:31:41;;;;;;;1.70;0.80;;;;;;;4.25;100.00;96485.53;6106709;19;20006;-71
2024/02/23 08:33:42;;;;;;;3.30;1.00;;;;;;;4.29;100.00;96486.31;6107330;19;20003;-70
2024/02/23 08:35:42;;;;;;;4.18;1.10;;;;;;;4.29;100.00;96493.72;6107012;19;20332;-71
2024/02/23 08:37:43;;;;;;;3.08;1.13;;;;;;;4.34;100.00;96490.63;6107655;19;20480;-70
2024/02/23 08:39:43;;;;;;;2.08;1.30;;;;;;;4.36;100.00;96491.03;6106931;19;20499;-70
2024/02/23 08:41:43;;;;;;;1.63;1.00;;;;;;;4.40;100.00;96498.09;6106158;19;20010;-70
2024/02/23 08:43:44;;;;;;;2.67;1.10;;;;;;;4.43;100.00;96493.78;6105132;19;20013;-70
2024/02/23 08:45:44;;;;;;;1.73;0.90;;;;;;;4.47;100.00;96500.88;6106908;19;20002;-70
2024/02/23 08:47:45;;;;;;;4.75;1.20;;;;;;;4.51;100.00;96489.91;6106626;19;19999;-71
2024/02/23 08:49:45;;;;;;;1.67;0.93;;;;;;;4.49;100.00;96487.56;6106849;19;20604;-71
2024/02/23 08:51:46;;;;;;;3.25;1.30;;;;;;;4.55;100.00;96495.38;6106357;19;20007;-71
2024/02/23 08:53:46;;;;;;;1.85;0.88;;;;;;;4.63;100.00;96496.97;6107004;19;20006;-71
2024/02/23 08:55:47;;;;;;;1.67;0.88;;;;;;;4.65;100.00;96489.97;6107091;19;20006;-71
2024/02/23 08:57:47;;;;;;;3.22;1.25;;;;;;;4.65;100.00;96500.13;6107285;19;20011;-71
2024/02/23 08:59:51;;;;;;;2.55;1.33;;;;;;;4.68;100.00;96493.88;6105462;19;20019;-71
2024/02/23 09:01:51;;;;;;;5.40;0.85;;;;;;;4.76;100.00;96496.25;6106986;19;20010;-71
2024/02/23 09:03:52;;;;;;;31.98;12.27;;;;;;;4.76;100.00;96487.25;6106948;19;20459;-71
2024/02/23 09:05:52;;;;;;;11.00;4.50;;;;;;;4.84;100.00;96496.25;6105946;19;20341;-71
2024/02/23 09:07:53;;;;;;;3.40;1.65;;;;;;;4.90;100.00;96498.25;6105378;19;20026;-71
2024/02/23 09:09:54;;;;;;;4.03;1.48;;;;;;;4.91;100.00;96496.28;6105426;19;20035;-71
2024/02/23 09:11:54;;;;;;;3.25;2.03;;;;;;;4.94;100.00;96511.94;6106319;19;20498;-71
2024/02/23 09:13:54;;;;;;;3.05;1.83;;;;;;;5.01;100.00;96503.72;6106404;19;20011;-71
2024/02/23 09:15:55;;;;;;;4.05;1.50;;;;;;;5.03;100.00;96504.13;6106378;19;20486;-71
2024/02/23 09:17:55;;;;;;;2.72;1.25;;;;;;;5.13;100.00;96511.59;6106966;19;20018;-71
2024/02/23 09:19:56;;;;;;;2.97;1.33;;;;;;;5.06;100.00;96508.84;6105328;19;20385;-71
2024/02/23 09:21:56;;;;;;;3.78;1.25;;;;;;;5.05;100.00;96501.78;6105621;19;20325;-71
2024/02/23 09:23:56;;;;;;;3.25;1.38;;;;;;;5.12;100.00;96504.53;6106413;19;20721;-70
2024/02/23 09:25:57;;;;;;;2.70;1.35;;;;;;;5.15;100.00;96516.69;6107256;19;20074;-70
2024/02/23 09:27:57;;;;;;;3.92;1.73;;;;;;;5.13;100.00;96511.59;6105267;19;20002;-70